createdAt,value
2018-11-01T00:00:17.155Z,56150.89
2018-11-01T00:02:46.432Z,56175.56
2018-11-01T00:05:16.086Z,56180.71
2018-11-01T00:07:45.556Z,56129.29
2018-11-01T00:10:14.850Z,56147.80
2018-11-01T00:12:44.595Z,56152.94
2018-11-01T00:15:14.810Z,56162.20
2018-11-01T00:17:43.972Z,56195.10
2018-11-01T00:20:13.901Z,56133.41
2018-11-01T00:22:43.839Z,56151.91
2018-11-01T00:25:13.703Z,56104.62
2018-11-01T00:27:43.325Z,56142.66
2018-11-01T00:30:12.445Z,56157.05
2018-11-01T00:32:41.626Z,56144.71
2018-11-01T00:35:10.724Z,56150.89
2018-11-01T00:37:39.834Z,56145.75
2018-11-01T00:40:12.152Z,56159.11
2018-11-01T00:42:41.636Z,56167.34
2018-11-01T00:45:11.528Z,56163.23
2018-11-01T00:47:40.653Z,56189.96
2018-11-01T00:50:13.979Z,56172.48
2018-11-01T00:52:43.613Z,56138.55
2018-11-01T00:55:13.618Z,56185.85
2018-11-01T00:57:43.037Z,56151.91
2018-11-01T01:00:14.400Z,56161.17
2018-11-01T01:02:43.543Z,56160.14
2018-11-01T01:05:13.205Z,56156.03
2018-11-01T01:07:42.339Z,56158.09
2018-11-01T01:10:15.784Z,56161.17
2018-11-01T01:12:45.899Z,56181.73
2018-11-01T01:15:15.029Z,56158.09
2018-11-01T01:17:44.163Z,56167.34
2018-11-01T01:20:15.552Z,56164.25
2018-11-01T01:22:45.567Z,56146.77
2018-11-01T01:25:15.997Z,56188.93
2018-11-01T01:27:45.152Z,56164.25
2018-11-01T01:30:16.888Z,56182.76
2018-11-01T01:32:46.547Z,56206.41
2018-11-01T01:35:16.067Z,56172.48
2018-11-01T01:37:45.352Z,56172.48
2018-11-01T01:40:14.527Z,56180.71
2018-11-01T01:42:49.636Z,56174.54
2018-11-01T01:45:18.823Z,56148.83
2018-11-01T01:47:47.943Z,56149.86
2018-11-01T01:50:17.791Z,56180.71
2018-11-01T01:52:47.188Z,56181.73
2018-11-01T01:55:16.398Z,56171.45
2018-11-01T01:57:45.548Z,56156.03
2018-11-01T02:00:16.225Z,56192.02
2018-11-01T02:02:46.681Z,56164.25
2018-11-01T02:05:15.782Z,56173.51
2018-11-01T02:07:44.930Z,56195.10
2018-11-01T02:10:16.194Z,56166.31
2018-11-01T02:12:45.380Z,56132.38
2018-11-01T02:15:20.016Z,56213.61
2018-11-01T02:17:49.206Z,56203.33
2018-11-01T02:20:19.536Z,56160.14
2018-11-01T02:22:48.708Z,56170.42
2018-11-01T02:25:17.871Z,56183.79
2018-11-01T02:27:52.357Z,56187.90
2018-11-01T02:30:21.477Z,56161.17
2018-11-01T02:32:50.606Z,56205.38
2018-11-01T02:35:20.291Z,56166.31
2018-11-01T02:37:49.514Z,56207.44
2018-11-01T02:40:18.784Z,56163.23
2018-11-01T02:42:47.951Z,56166.31
2018-11-01T02:45:17.059Z,56187.90
2018-11-01T02:47:46.228Z,56170.42
2018-11-01T02:50:15.757Z,56155.00
2018-11-01T02:52:44.901Z,56155.00
2018-11-01T02:55:14.096Z,56183.79
2018-11-01T02:57:43.218Z,56158.09
2018-11-01T03:00:14.645Z,56189.96
2018-11-01T03:02:43.844Z,56180.71
2018-11-01T03:05:13.402Z,56210.52
2018-11-01T03:07:42.699Z,56182.76
2018-11-01T03:10:13.341Z,56190.99
2018-11-01T03:12:42.712Z,56232.12
2018-11-01T03:15:13.059Z,56166.31
2018-11-01T03:17:42.369Z,56173.51
2018-11-01T03:20:12.298Z,56162.20
2018-11-01T03:22:41.497Z,56161.17
2018-11-01T03:25:10.983Z,56180.71
2018-11-01T03:27:40.127Z,56174.54
2018-11-01T03:30:10.100Z,56163.23
2018-11-01T03:32:39.417Z,56211.55
2018-11-01T03:35:09.657Z,56199.21
2018-11-01T03:37:38.850Z,56211.55
2018-11-01T03:40:09.726Z,56158.09
2018-11-01T03:42:39.463Z,56185.85
2018-11-01T03:45:10.019Z,56178.65
2018-11-01T03:47:39.394Z,56180.71
2018-11-01T03:50:08.796Z,56180.71
2018-11-01T03:52:37.923Z,56170.42
2018-11-01T03:55:09.212Z,56151.91
2018-11-01T03:57:38.352Z,56184.82
2018-11-01T04:00:11.375Z,56194.07
2018-11-01T04:02:40.608Z,56189.96
2018-11-01T04:05:09.825Z,56163.23
2018-11-01T04:07:39.208Z,56166.31
2018-11-01T04:10:09.679Z,56156.03
2018-11-01T04:12:38.936Z,56166.31
2018-11-01T04:15:11.052Z,56161.17
2018-11-01T04:17:40.179Z,56192.02
2018-11-01T04:20:10.858Z,56181.73
2018-11-01T04:22:40.324Z,56193.05
2018-11-01T04:25:09.497Z,56182.76
2018-11-01T04:27:38.590Z,56180.71
2018-11-01T04:30:08.248Z,56199.21
2018-11-01T04:32:37.392Z,56195.10
2018-11-01T04:35:07.337Z,56187.90
2018-11-01T04:37:36.471Z,56198.19
2018-11-01T04:40:06.658Z,56209.50
2018-11-01T04:42:35.814Z,56165.28
2018-11-01T04:45:05.593Z,56184.82
2018-11-01T04:47:34.758Z,56169.39
2018-11-01T04:50:03.810Z,56146.77
2018-11-01T04:52:32.896Z,56188.93
2018-11-01T04:55:01.965Z,56196.13
2018-11-01T04:57:31.095Z,56187.90
2018-11-01T05:00:00.216Z,56180.71
2018-11-01T05:02:29.341Z,56173.51
2018-11-01T05:04:58.531Z,56190.99
2018-11-01T05:07:27.996Z,56199.21
2018-11-01T05:09:57.165Z,56199.21
2018-11-01T05:12:26.241Z,56189.96
2018-11-01T05:14:55.400Z,56197.16
2018-11-01T05:17:24.534Z,56159.11
2018-11-01T05:19:53.634Z,56171.45
2018-11-01T05:22:22.721Z,56182.76
2018-11-01T05:24:51.812Z,56182.76
2018-11-01T05:27:21.026Z,56187.90
2018-11-01T05:29:50.126Z,56177.62
2018-11-01T05:32:19.213Z,56196.13
2018-11-01T05:34:48.320Z,56182.76
2018-11-01T05:37:17.426Z,56194.07
2018-11-01T05:39:46.529Z,56197.16
2018-11-01T05:42:15.647Z,56186.87
2018-11-01T05:44:44.810Z,56183.79
2018-11-01T05:47:13.937Z,56183.79
2018-11-01T05:49:43.091Z,56159.11
2018-11-01T05:52:12.212Z,56196.13
2018-11-01T05:54:41.303Z,56194.07
2018-11-01T05:57:10.441Z,56162.20
2018-11-01T05:59:39.571Z,56197.16
2018-11-01T06:02:12.776Z,56182.76
2018-11-01T06:04:41.899Z,56186.87
2018-11-01T06:07:11.067Z,56186.87
2018-11-01T06:09:40.186Z,56207.44
2018-11-01T06:12:09.380Z,56180.71
2018-11-01T06:14:38.485Z,56178.65
2018-11-01T06:17:07.664Z,56162.20
2018-11-01T06:19:36.793Z,56195.10
2018-11-01T06:22:05.922Z,56193.05
2018-11-01T06:24:35.065Z,56207.44
2018-11-01T06:27:04.184Z,56198.19
2018-11-01T06:29:33.323Z,56193.05
2018-11-01T06:32:03.172Z,56182.76
2018-11-01T06:34:35.118Z,56219.78
2018-11-01T06:37:04.241Z,56170.42
2018-11-01T06:39:33.375Z,56179.68
2018-11-01T06:42:02.569Z,56168.37
2018-11-01T06:44:31.792Z,56159.11
2018-11-01T06:47:00.875Z,56165.28
2018-11-01T06:49:29.991Z,56160.14
2018-11-01T06:51:59.127Z,56178.65
2018-11-01T06:54:28.243Z,56148.83
2018-11-01T06:56:57.392Z,56170.42
2018-11-01T06:59:26.556Z,56158.09
2018-11-01T07:01:55.643Z,56145.75
2018-11-01T07:04:24.795Z,56176.59
2018-11-01T07:06:53.918Z,56168.37
2018-11-01T07:09:23.075Z,56155.00
2018-11-01T07:11:52.231Z,56131.35
2018-11-01T07:14:21.365Z,56130.32
2018-11-01T07:16:50.514Z,56184.82
2018-11-01T07:19:19.650Z,56149.86
2018-11-01T07:21:48.798Z,56176.59
2018-11-01T07:24:17.948Z,56160.14
2018-11-01T07:26:47.056Z,56147.80
2018-11-01T07:29:16.188Z,56170.42
2018-11-01T07:31:45.372Z,56105.64
2018-11-01T07:34:14.580Z,56145.75
2018-11-01T07:36:43.695Z,56163.23
2018-11-01T07:39:12.816Z,56171.45
2018-11-01T07:41:41.907Z,56145.75
2018-11-01T07:44:11.063Z,56155.00
2018-11-01T07:46:40.186Z,56143.69
2018-11-01T07:49:09.390Z,56147.80
2018-11-01T07:51:38.559Z,56157.05
2018-11-01T07:54:07.680Z,56130.32
2018-11-01T07:56:36.816Z,56153.97
2018-11-01T07:59:05.987Z,56129.29
2018-11-01T08:01:35.180Z,56153.97
2018-11-01T08:04:04.584Z,56133.41
2018-11-01T08:06:33.731Z,56133.41
2018-11-01T08:09:03.331Z,56142.66
2018-11-01T08:11:32.559Z,56148.83
2018-11-01T08:14:01.664Z,56112.84
2018-11-01T08:16:30.866Z,56141.63
2018-11-01T08:19:00.042Z,56147.80
2018-11-01T08:21:29.171Z,56114.90
2018-11-01T08:23:58.592Z,56121.07
2018-11-01T08:26:27.700Z,56157.05
2018-11-01T08:28:56.816Z,56130.32
2018-11-01T08:31:26.796Z,56112.84
2018-11-01T08:33:56.515Z,56134.43
2018-11-01T08:36:26.000Z,56125.18
2018-11-01T08:38:55.241Z,56116.95
2018-11-01T08:41:24.348Z,56111.81
2018-11-01T08:43:53.458Z,56132.38
2018-11-01T08:46:22.592Z,56096.39
2018-11-01T08:48:51.728Z,56122.09
2018-11-01T08:51:20.842Z,56136.49
2018-11-01T08:53:49.991Z,56114.90
2018-11-01T08:56:19.105Z,56127.23
2018-11-01T08:58:48.248Z,56086.11
2018-11-01T09:01:17.354Z,56055.26
2018-11-01T09:03:46.505Z,55962.72
2018-11-01T09:06:15.666Z,55984.31
2018-11-01T09:08:44.806Z,55928.79
2018-11-01T09:11:13.995Z,55954.49
2018-11-01T09:13:43.162Z,55970.95
2018-11-01T09:16:12.322Z,55935.98
2018-11-01T09:18:41.459Z,56000.76
2018-11-01T09:21:10.574Z,55973.00
2018-11-01T09:23:39.950Z,56002.82
2018-11-01T09:26:09.072Z,55995.62
2018-11-01T09:28:38.237Z,56036.75
2018-11-01T09:31:07.374Z,56056.29
2018-11-01T09:33:36.497Z,56088.16
2018-11-01T09:36:06.300Z,56130.32
2018-11-01T09:38:35.445Z,56108.73
2018-11-01T09:41:04.571Z,56125.18
2018-11-01T09:43:34.743Z,56094.33
2018-11-01T09:46:03.990Z,56149.86
2018-11-01T09:48:33.012Z,56109.76
2018-11-01T09:51:02.183Z,56104.62
2018-11-01T09:53:31.308Z,56157.05
2018-11-01T09:56:00.427Z,56112.84
2018-11-01T09:58:29.652Z,56124.15
2018-11-01T10:00:58.986Z,56091.25
2018-11-01T10:03:28.088Z,56149.86
2018-11-01T10:05:57.253Z,56125.18
2018-11-01T10:08:26.350Z,56119.01
2018-11-01T10:10:55.471Z,56094.33
2018-11-01T10:13:24.635Z,56139.57
2018-11-01T10:15:53.850Z,56123.12
2018-11-01T10:18:23.467Z,56102.56
2018-11-01T10:20:52.429Z,56095.36
2018-11-01T10:23:21.530Z,56086.11
2018-11-01T10:25:50.664Z,56074.80
2018-11-01T10:28:19.861Z,56084.05
2018-11-01T10:30:49.015Z,56112.84
2018-11-01T10:33:18.200Z,56120.04
2018-11-01T10:35:47.397Z,56104.62
2018-11-01T10:38:16.524Z,56102.56
2018-11-01T10:40:45.716Z,56104.62
2018-11-01T10:43:14.808Z,56100.50
2018-11-01T10:45:43.957Z,56069.65
2018-11-01T10:48:13.049Z,56127.23
2018-11-01T10:50:42.211Z,56098.45
2018-11-01T10:53:11.316Z,56112.84
2018-11-01T10:55:40.487Z,56105.64
2018-11-01T10:58:09.596Z,56106.67
2018-11-01T11:00:44.133Z,56106.67
2018-11-01T11:03:13.380Z,56070.68
2018-11-01T11:05:42.611Z,56112.84
2018-11-01T11:08:11.784Z,56108.73
2018-11-01T11:10:40.911Z,56106.67
2018-11-01T11:13:10.061Z,56117.98
2018-11-01T11:15:39.173Z,56101.53
2018-11-01T11:18:08.498Z,56106.67
2018-11-01T11:20:37.807Z,56091.25
2018-11-01T11:23:06.774Z,56112.84
2018-11-01T11:25:35.898Z,56106.67
2018-11-01T11:28:05.043Z,56106.67
2018-11-01T11:30:34.278Z,56098.45
2018-11-01T11:33:03.305Z,56098.45
2018-11-01T11:35:32.460Z,56101.53
2018-11-01T11:38:01.593Z,56094.33
2018-11-01T11:40:30.784Z,56110.79
2018-11-01T11:42:59.911Z,56092.28
2018-11-01T11:45:29.092Z,56127.23
2018-11-01T11:47:58.240Z,56094.33
2018-11-01T11:50:27.350Z,56079.94
2018-11-01T11:52:56.579Z,56110.79
2018-11-01T11:55:25.747Z,56125.18
2018-11-01T11:57:54.892Z,56123.12
2018-11-01T12:00:24.070Z,56100.50
2018-11-01T12:02:53.183Z,56106.67
2018-11-01T12:05:22.516Z,56119.01
2018-11-01T12:07:51.599Z,56092.28
2018-11-01T12:10:20.705Z,56117.98
2018-11-01T12:12:49.907Z,56114.90
2018-11-01T12:15:19.035Z,56098.45
2018-11-01T12:17:48.220Z,56102.56
2018-11-01T12:20:17.350Z,56083.02
2018-11-01T12:22:46.475Z,56125.18
2018-11-01T12:25:15.591Z,56121.07
2018-11-01T12:27:44.723Z,56090.22
2018-11-01T12:30:13.850Z,56128.27
2018-11-01T12:32:42.994Z,56111.81
2018-11-01T12:35:12.149Z,56083.02
2018-11-01T12:37:41.214Z,56103.59
2018-11-01T12:40:12.091Z,56114.90
2018-11-01T12:42:41.349Z,56084.05
2018-11-01T12:45:11.964Z,56101.53
2018-11-01T12:47:41.452Z,56097.42
2018-11-01T12:50:12.599Z,56121.07
2018-11-01T12:52:42.033Z,56103.59
2018-11-01T12:55:11.384Z,56065.54
2018-11-01T12:57:40.514Z,56076.85
2018-11-01T13:00:11.447Z,56078.91
2018-11-01T13:02:40.676Z,56083.02
2018-11-01T13:05:09.736Z,56090.22
2018-11-01T13:07:38.886Z,56075.82
2018-11-01T13:10:08.005Z,56066.57
2018-11-01T13:12:37.183Z,56111.81
2018-11-01T13:15:08.456Z,56094.33
2018-11-01T13:17:37.590Z,56109.76
2018-11-01T13:20:06.842Z,56090.22
2018-11-01T13:22:36.027Z,56070.68
2018-11-01T13:25:05.843Z,56086.11
2018-11-01T13:27:35.571Z,56093.30
2018-11-01T13:30:05.680Z,56101.53
2018-11-01T13:32:34.817Z,56087.14
2018-11-01T13:35:04.094Z,56128.27
2018-11-01T13:37:33.150Z,56075.82
2018-11-01T13:40:02.527Z,56100.50
2018-11-01T13:42:31.574Z,56087.14
2018-11-01T13:45:00.707Z,56101.53
2018-11-01T13:47:29.920Z,56106.67
2018-11-01T13:49:58.951Z,56103.59
2018-11-01T13:52:28.122Z,56115.93
2018-11-01T13:54:57.258Z,56100.50
2018-11-01T13:57:26.397Z,56094.33
2018-11-01T13:59:55.595Z,56130.32
2018-11-01T14:02:24.843Z,56097.42
2018-11-01T14:04:53.984Z,56128.27
2018-11-01T14:07:23.136Z,56084.05
2018-11-01T14:09:52.303Z,56098.45
2018-11-01T14:12:21.479Z,56128.27
2018-11-01T14:14:50.933Z,56086.11
2018-11-01T14:17:19.771Z,56088.16
2018-11-01T14:19:48.927Z,56112.84
2018-11-01T14:22:18.072Z,56094.33
2018-11-01T14:24:47.240Z,56060.40
2018-11-01T14:27:16.447Z,56090.22
2018-11-01T14:29:45.581Z,56082.00
2018-11-01T14:32:14.696Z,56114.90
2018-11-01T14:34:43.862Z,56089.19
2018-11-01T14:37:12.988Z,56066.57
2018-11-01T14:39:42.167Z,56109.76
2018-11-01T14:42:11.312Z,56111.81
2018-11-01T14:44:40.607Z,56082.00
2018-11-01T14:47:09.641Z,56091.25
2018-11-01T14:49:38.735Z,56094.33
2018-11-01T14:52:08.347Z,56116.95
2018-11-01T14:54:37.788Z,56083.02
2018-11-01T14:57:07.431Z,56071.71
2018-11-01T14:59:36.696Z,56101.53
2018-11-01T15:02:04.817Z,56092.28
2018-11-01T15:04:34.002Z,56113.87
2018-11-01T15:07:03.143Z,56086.11
2018-11-01T15:09:32.363Z,56116.95
2018-11-01T15:12:01.567Z,56119.01
2018-11-01T15:14:30.685Z,56108.73
2018-11-01T15:16:59.816Z,56104.62
2018-11-01T15:19:29.009Z,56105.64
2018-11-01T15:21:58.184Z,56071.71
2018-11-01T15:24:27.335Z,56079.94
2018-11-01T15:26:56.530Z,56139.57
2018-11-01T15:29:25.736Z,56142.66
2018-11-01T15:31:54.837Z,56096.39
2018-11-01T15:34:23.972Z,56128.27
2018-11-01T15:36:53.105Z,56119.01
2018-11-01T15:39:22.279Z,56101.53
2018-11-01T15:41:51.368Z,56112.84
2018-11-01T15:44:20.543Z,56122.09
2018-11-01T15:46:49.763Z,56093.30
2018-11-01T15:49:18.928Z,56142.66
2018-11-01T15:51:48.134Z,56137.52
2018-11-01T15:54:17.248Z,56083.02
2018-11-01T15:56:46.383Z,56109.76
2018-11-01T15:59:15.766Z,56123.12
2018-11-01T16:01:44.897Z,56159.11
2018-11-01T16:04:14.087Z,56116.95
2018-11-01T16:06:43.213Z,56145.75
2018-11-01T16:09:13.540Z,56135.46
2018-11-01T16:11:43.054Z,56133.41
2018-11-01T16:14:12.342Z,56120.04
2018-11-01T16:16:41.682Z,56112.84
2018-11-01T16:19:11.260Z,56146.77
2018-11-01T16:21:41.117Z,56139.57
2018-11-01T16:24:10.277Z,56112.84
2018-11-01T16:26:39.391Z,56114.90
2018-11-01T16:29:08.567Z,56103.59
2018-11-01T16:31:37.770Z,56112.84
2018-11-01T16:34:06.871Z,56119.01
2018-11-01T16:36:36.139Z,56094.33
2018-11-01T16:39:08.757Z,56108.73
2018-11-01T16:41:37.963Z,56131.35
2018-11-01T16:44:07.046Z,56165.28
2018-11-01T16:46:36.200Z,56115.93
2018-11-01T16:49:05.820Z,56145.75
2018-11-01T16:51:34.947Z,56117.98
2018-11-01T16:54:04.073Z,56131.35
2018-11-01T16:56:33.243Z,56138.55
2018-11-01T16:59:02.406Z,56142.66
2018-11-01T17:01:31.517Z,56117.98
2018-11-01T17:04:00.650Z,56122.09
2018-11-01T17:06:29.779Z,56112.84
2018-11-01T17:08:58.916Z,56145.75
2018-11-01T17:11:28.089Z,56178.65
2018-11-01T17:13:57.277Z,56134.43
2018-11-01T17:16:26.360Z,56129.29
2018-11-01T17:18:55.588Z,56103.59
2018-11-01T17:21:24.692Z,56119.01
2018-11-01T17:23:53.869Z,56115.93
2018-11-01T17:26:23.096Z,56132.38
2018-11-01T17:28:52.260Z,56165.28
2018-11-01T17:31:21.406Z,56131.35
2018-11-01T17:33:50.619Z,56151.91
2018-11-01T17:36:19.801Z,56140.61
2018-11-01T17:38:48.918Z,56116.95
2018-11-01T17:41:18.024Z,56144.71
2018-11-01T17:43:47.168Z,56158.09
2018-11-01T17:46:16.498Z,56134.43
2018-11-01T17:48:45.408Z,56162.20
2018-11-01T17:51:14.675Z,56152.94
2018-11-01T17:53:44.610Z,56160.14
2018-11-01T17:56:13.731Z,56163.23
2018-11-01T17:58:42.849Z,56176.59
2018-11-01T18:01:11.977Z,56137.52
2018-11-01T18:03:41.266Z,56163.23
2018-11-01T18:06:10.389Z,56138.55
2018-11-01T18:08:39.554Z,56162.20
2018-11-01T18:11:08.699Z,56167.34
2018-11-01T18:13:37.827Z,56195.10
2018-11-01T18:16:06.976Z,56163.23
2018-11-01T18:18:36.171Z,56162.20
2018-11-01T18:21:05.428Z,56138.55
2018-11-01T18:23:34.564Z,56151.91
2018-11-01T18:26:03.682Z,56158.09
2018-11-01T18:28:32.826Z,56164.25
2018-11-01T18:31:01.975Z,56148.83
2018-11-01T18:33:31.096Z,56205.38
2018-11-01T18:36:00.207Z,56155.00
2018-11-01T18:38:29.321Z,56166.31
2018-11-01T18:40:58.460Z,56164.25
2018-11-01T18:43:27.618Z,56187.90
2018-11-01T18:45:56.776Z,56174.54
2018-11-01T18:48:26.033Z,56159.11
2018-11-01T18:50:55.075Z,56190.99
2018-11-01T18:53:24.192Z,56155.00
2018-11-01T18:55:53.319Z,56166.31
2018-11-01T18:58:22.429Z,56197.16
2018-11-01T19:00:51.685Z,56153.97
2018-11-01T19:03:24.794Z,56153.97
2018-11-01T19:05:53.905Z,56160.14
2018-11-01T19:08:23.049Z,56184.82
2018-11-01T19:10:52.756Z,56167.34
2018-11-01T19:13:22.094Z,56196.13
2018-11-01T19:15:51.238Z,56149.86
2018-11-01T19:18:20.378Z,56176.59
2018-11-01T19:20:49.662Z,56180.71
2018-11-01T19:23:18.962Z,56149.86
2018-11-01T19:25:48.094Z,56127.23
2018-11-01T19:28:17.199Z,56171.45
2018-11-01T19:30:46.352Z,56177.62
2018-11-01T19:33:15.922Z,56182.76
2018-11-01T19:35:45.167Z,56156.03
2018-11-01T19:38:14.357Z,56164.25
2018-11-01T19:40:43.456Z,56178.65
2018-11-01T19:43:12.599Z,56156.03
2018-11-01T19:45:41.824Z,56160.14
2018-11-01T19:48:10.961Z,56195.10
2018-11-01T19:50:40.097Z,56178.65
2018-11-01T19:53:09.194Z,56179.68
2018-11-01T19:55:38.432Z,56169.39
2018-11-01T19:58:07.583Z,56159.11
2018-11-01T20:00:36.743Z,56159.11
2018-11-01T20:03:05.865Z,56145.75
2018-11-01T20:05:35.039Z,56125.18
2018-11-01T20:08:04.200Z,56140.61
2018-11-01T20:10:33.310Z,56132.38
2018-11-01T20:13:02.432Z,56140.61
2018-11-01T20:15:31.534Z,56156.03
2018-11-01T20:18:00.826Z,56188.93
2018-11-01T20:20:29.991Z,56168.37
2018-11-01T20:22:59.091Z,56176.59
2018-11-01T20:25:28.216Z,56125.18
2018-11-01T20:27:57.341Z,56158.09
2018-11-01T20:30:26.465Z,56180.71
2018-11-01T20:32:55.586Z,56142.66
2018-11-01T20:35:24.713Z,56155.00
2018-11-01T20:37:53.825Z,56139.57
2018-11-01T20:40:23.001Z,56145.75
2018-11-01T20:42:52.125Z,56150.89
2018-11-01T20:45:21.271Z,56133.41
2018-11-01T20:47:50.491Z,56131.35
2018-11-01T20:50:19.760Z,56147.80
2018-11-01T20:52:48.770Z,56165.28
2018-11-01T20:55:17.915Z,56186.87
2018-11-01T20:57:47.142Z,56126.21
2018-11-01T21:00:16.675Z,56133.41
2018-11-01T21:02:45.873Z,56131.35
2018-11-01T21:05:15.062Z,56150.89
2018-11-01T21:07:44.220Z,56160.14
2018-11-01T21:10:13.317Z,56153.97
2018-11-01T21:12:42.472Z,56161.17
2018-11-01T21:15:13.491Z,56139.57
2018-11-01T21:17:42.705Z,56142.66
2018-11-01T21:20:11.896Z,56167.34
2018-11-01T21:22:41.185Z,56121.07
2018-11-01T21:25:11.515Z,56181.73
2018-11-01T21:27:40.655Z,56139.57
2018-11-01T21:30:10.020Z,56135.46
2018-11-01T21:32:39.133Z,56128.27
2018-11-01T21:35:08.573Z,56158.09
2018-11-01T21:37:37.652Z,56141.63
2018-11-01T21:40:08.989Z,56146.77
2018-11-01T21:42:38.182Z,56141.63
2018-11-01T21:45:09.968Z,56151.91
2018-11-01T21:47:39.048Z,56142.66
2018-11-01T21:50:08.247Z,56152.94
2018-11-01T21:52:37.384Z,56144.71
2018-11-01T21:55:07.093Z,56184.82
2018-11-01T21:57:36.282Z,56153.97
2018-11-01T22:00:07.012Z,56153.97
2018-11-01T22:02:36.333Z,56135.46
2018-11-01T22:05:06.310Z,56147.80
2018-11-01T22:07:35.460Z,56174.54
2018-11-01T22:10:04.666Z,56174.54
2018-11-01T22:12:33.842Z,56144.71
2018-11-01T22:15:02.973Z,56157.05
2018-11-01T22:17:32.082Z,56153.97
2018-11-01T22:20:01.211Z,56127.23
2018-11-01T22:22:30.345Z,56169.39
2018-11-01T22:24:59.455Z,56158.09
2018-11-01T22:27:28.938Z,56176.59
2018-11-01T22:29:58.049Z,56182.76
2018-11-01T22:32:27.157Z,56150.89
2018-11-01T22:34:56.278Z,56153.97
2018-11-01T22:37:25.621Z,56178.65
2018-11-01T22:39:54.773Z,56165.28
2018-11-01T22:42:23.875Z,56173.51
2018-11-01T22:44:53.058Z,56164.25
2018-11-01T22:47:22.393Z,56193.05
2018-11-01T22:49:51.535Z,56183.79
2018-11-01T22:52:20.656Z,56182.76
2018-11-01T22:54:49.793Z,56163.23
2018-11-01T22:57:18.905Z,56151.91
2018-11-01T22:59:48.045Z,56200.24
2018-11-01T23:02:17.091Z,56164.25
2018-11-01T23:04:46.289Z,56164.25
2018-11-01T23:07:15.348Z,56140.61
2018-11-01T23:09:44.476Z,56142.66
2018-11-01T23:12:13.551Z,56139.57
2018-11-01T23:14:42.691Z,56162.20
2018-11-01T23:17:11.838Z,56133.41
2018-11-01T23:19:41.195Z,56132.38
2018-11-01T23:22:10.383Z,56140.61
2018-11-01T23:24:39.462Z,56136.49
2018-11-01T23:27:08.579Z,56167.34
2018-11-01T23:29:37.685Z,56156.03
2018-11-01T23:32:06.864Z,56151.91
2018-11-01T23:34:35.964Z,56156.03
2018-11-01T23:37:10.464Z,56129.29
2018-11-01T23:39:44.865Z,56139.57
2018-11-01T23:42:19.416Z,56156.03
2018-11-01T23:44:53.827Z,56160.14
2018-11-01T23:47:28.355Z,56114.90
2018-11-01T23:50:01.877Z,56112.84
2018-11-01T23:52:31.373Z,56139.57
2018-11-01T23:55:00.444Z,56123.12
2018-11-01T23:57:29.560Z,56147.80
2018-11-01T23:59:58.760Z,56130.32
